Time;durP1;ratioP1;P1;durP2;ratioP2;P2;SDS_P1;SDS_P2;PMS_P1;PMS_P2;Temp;Humidity;BMP_temperature;BMP_pressure;BME280_temperature;BME280_humidity;BME280_pressure;Samples;Min_cycle;Max_cycle;Signal;HPM_P1;HPM_P2
2022/03/13 00:00:59;;;;;;;40.08;16.48;;;;;;;0.52;61.65;93754.13;5049504;28;20056;-57
2022/03/13 00:03:28;;;;;;;57.33;20.17;;;;;;;0.35;62.29;93765.34;5050318;28;20037;-52
2022/03/13 00:05:55;;;;;;;77.07;24.17;;;;;;;0.36;62.76;93756.09;5049219;28;20099;-50
2022/03/13 00:08:27;;;;;;;76.93;25.98;;;;;;;0.38;62.64;93760.03;5050370;28;20048;-51
2022/03/13 00:10:58;;;;;;;61.58;23.15;;;;;;;0.42;63.28;93764.72;5051200;28;20045;-51
2022/03/13 00:13:30;;;;;;;69.68;23.98;;;;;;;0.36;62.85;93758.81;5050663;28;20048;-51
2022/03/13 00:16:08;;;;;;;51.33;19.88;;;;;;;0.33;62.46;93770.31;5050926;28;20033;-51
2022/03/13 00:18:38;;;;;;;47.77;19.17;;;;;;;0.34;63.39;93769.97;5050092;28;20901;-53
2022/03/13 00:21:04;;;;;;;49.10;20.58;;;;;;;0.28;63.79;93774.09;5050184;28;20052;-48
2022/03/13 00:23:32;;;;;;;62.28;25.10;;;;;;;0.14;64.33;93777.28;5050867;28;20047;-50
2022/03/13 00:25:59;;;;;;;51.92;21.50;;;;;;;0.17;64.58;93770.38;5037454;28;20049;-48
2022/03/13 00:28:26;;;;;;;39.97;17.73;;;;;;;0.16;64.32;93777.69;5049836;28;20041;-50
2022/03/13 00:30:53;;;;;;;39.20;16.57;;;;;;;0.13;64.00;93778.38;5048672;28;20056;-58
2022/03/13 00:33:20;;;;;;;37.60;16.35;;;;;;;0.11;63.54;93774.50;5032733;28;20054;-50
2022/03/13 00:35:49;;;;;;;37.75;16.70;;;;;;;0.12;63.71;93779.53;5030499;28;20052;-50
2022/03/13 00:38:16;;;;;;;40.88;17.83;;;;;;;0.09;64.13;93768.66;5047603;28;20045;-50
2022/03/13 00:40:48;;;;;;;41.28;17.80;;;;;;;0.09;63.96;93769.44;5050036;28;20752;-52
2022/03/13 00:43:14;;;;;;;40.10;16.77;;;;;;;0.12;63.61;93760.66;5049607;28;20045;-51
2022/03/13 00:45:41;;;;;;;38.00;16.10;;;;;;;0.09;63.27;93763.25;5050228;28;20051;-50
2022/03/13 00:48:08;;;;;;;39.60;17.83;;;;;;;0.03;63.93;93770.84;5049733;28;20382;-50
2022/03/13 00:50:35;;;;;;;40.10;17.58;;;;;;;-0.14;65.02;93758.53;5050416;28;20048;-48
2022/03/13 00:53:02;;;;;;;41.20;17.88;;;;;;;-0.17;64.85;93761.94;5048757;28;20482;-50
2022/03/13 00:55:29;;;;;;;43.30;17.73;;;;;;;-0.17;64.97;93761.94;5049278;28;20039;-50
2022/03/13 00:57:55;;;;;;;38.97;16.50;;;;;;;-0.18;64.45;93764.97;5050016;28;20110;-48
2022/03/13 01:00:22;;;;;;;38.75;16.55;;;;;;;-0.18;64.18;93754.97;5048939;28;20041;-54
2022/03/13 01:02:49;;;;;;;36.33;16.17;;;;;;;-0.19;64.14;93764.19;5050031;28;20477;-50
2022/03/13 01:05:27;;;;;;;39.72;17.67;;;;;;;-0.16;64.23;93758.09;5047888;28;20505;-47
2022/03/13 01:07:56;;;;;;;46.20;19.60;;;;;;;-0.18;64.31;93760.38;5049870;28;20142;-49
2022/03/13 01:10:24;;;;;;;45.33;18.80;;;;;;;-0.20;64.31;93759.94;5049459;28;20061;-48
2022/03/13 01:12:51;;;;;;;38.72;17.95;;;;;;;-0.28;63.95;93760.88;5048761;28;20045;-46
2022/03/13 01:15:19;;;;;;;39.80;16.35;;;;;;;-0.32;64.49;93762.72;5048300;28;20482;-48
2022/03/13 01:17:46;;;;;;;49.60;19.90;;;;;;;-0.39;64.80;93760.66;5049725;28;20401;-45
2022/03/13 01:20:19;;;;;;;47.03;19.10;;;;;;;-0.44;65.27;93766.31;5048778;28;20044;-50
2022/03/13 01:22:45;;;;;;;48.17;21.02;;;;;;;-0.51;65.90;93769.63;5049510;28;20049;-55
2022/03/13 01:25:13;;;;;;;47.83;20.23;;;;;;;-0.47;65.95;93759.69;5049100;28;20048;-51
2022/03/13 01:27:41;;;;;;;49.95;20.13;;;;;;;-0.51;65.75;93756.13;5058050;28;20047;-48
2022/03/13 01:30:08;;;;;;;51.22;22.92;;;;;;;-0.49;66.29;93747.69;5047421;28;20159;-49
2022/03/13 01:32:36;;;;;;;57.93;24.33;;;;;;;-0.57;66.49;93751.38;5049495;28;20047;-54
2022/03/13 01:35:03;;;;;;;47.15;18.95;;;;;;;-0.57;66.40;93748.66;5049129;28;20049;-56
2022/03/13 01:37:35;;;;;;;48.97;21.67;;;;;;;-0.61;66.30;93753.97;5048605;28;20408;-52
2022/03/13 01:40:08;;;;;;;47.28;19.63;;;;;;;-0.66;67.13;93760.41;5047813;28;20444;-56
2022/03/13 01:42:35;;;;;;;43.22;19.27;;;;;;;-0.69;67.37;93754.94;5048448;28;21719;-52
2022/03/13 01:45:03;;;;;;;42.77;18.00;;;;;;;-0.71;67.08;93757.19;5049212;28;20057;-63
2022/03/13 01:47:30;;;;;;;41.38;18.60;;;;;;;-0.72;67.30;93759.09;5047019;28;21485;-54
2022/03/13 01:49:57;;;;;;;41.00;18.38;;;;;;;-0.70;67.20;93758.78;5049232;28;20051;-51
2022/03/13 01:52:26;;;;;;;44.13;18.38;;;;;;;-0.76;67.43;93762.84;5047081;28;20126;-49
2022/03/13 01:54:55;;;;;;;41.25;17.73;;;;;;;-0.86;67.70;93764.91;5049089;28;20041;-51
2022/03/13 01:57:23;;;;;;;44.50;18.30;;;;;;;-0.87;67.65;93747.19;5047083;28;20045;-50
2022/03/13 01:59:55;;;;;;;41.67;17.75;;;;;;;-0.85;67.79;93746.84;5048694;28;20049;-52
2022/03/13 02:02:24;;;;;;;38.95;17.73;;;;;;;-1.11;68.42;93750.81;5037836;28;20110;-52
2022/03/13 02:04:54;;;;;;;46.33;19.65;;;;;;;-1.19;68.83;93753.66;5049191;28;20055;-50
2022/03/13 02:07:22;;;;;;;54.17;23.25;;;;;;;-1.14;68.36;93746.13;5048339;28;20052;-49
2022/03/13 02:09:49;;;;;;;44.77;19.73;;;;;;;-1.14;68.39;93750.72;5047641;28;20053;-49
2022/03/13 02:12:20;;;;;;;43.92;18.98;;;;;;;-1.31;69.26;93747.25;5048177;28;20052;-49
2022/03/13 02:14:49;;;;;;;42.40;18.17;;;;;;;-1.40;69.66;93754.66;5048648;28;20033;-52
2022/03/13 02:17:34;;;;;;;39.45;17.00;;;;;;;-1.35;69.46;93746.31;5047942;28;20057;-54
2022/03/13 02:20:03;;;;;;;39.67;16.80;;;;;;;-1.30;68.99;93743.41;5048960;28;20082;-48
2022/03/13 02:22:30;;;;;;;35.93;15.53;;;;;;;-1.33;69.05;93743.31;5048431;28;20041;-55
2022/03/13 02:24:57;;;;;;;37.10;16.30;;;;;;;-1.28;68.76;93743.84;5035892;28;20087;-53
2022/03/13 02:27:29;;;;;;;39.22;16.65;;;;;;;-1.28;68.50;93743.84;5050142;28;20057;-48
2022/03/13 02:29:56;;;;;;;38.80;15.75;;;;;;;-1.32;67.87;93734.88;5053015;28;20041;-48
2022/03/13 02:32:23;;;;;;;37.17;15.45;;;;;;;-1.31;67.47;93739.16;5052016;28;20045;-56
2022/03/13 02:34:50;;;;;;;37.33;16.07;;;;;;;-1.32;67.94;93740.28;5052690;28;20041;-50
2022/03/13 02:37:35;;;;;;;36.33;15.18;;;;;;;-1.33;68.19;93737.91;5052012;28;20049;-48
2022/03/13 02:40:04;;;;;;;36.42;16.15;;;;;;;-1.39;68.00;93737.38;5052574;28;20037;-50
2022/03/13 02:42:31;;;;;;;35.58;15.68;;;;;;;-1.40;67.86;93735.81;5051906;28;21657;-50
2022/03/13 02:44:58;;;;;;;38.95;16.52;;;;;;;-1.41;68.78;93739.63;5051414;28;20033;-53
2022/03/13 02:47:24;;;;;;;36.40;16.03;;;;;;;-1.42;68.84;93743.47;5051884;28;20045;-49
2022/03/13 02:49:51;;;;;;;37.28;15.32;;;;;;;-1.43;68.81;93744.56;5039780;28;20041;-53
2022/03/13 02:52:18;;;;;;;43.83;17.98;;;;;;;-1.43;68.93;93748.06;5050256;28;20049;-48
2022/03/13 02:54:44;;;;;;;45.20;18.70;;;;;;;-1.41;68.83;93737.75;5052316;28;20049;-47
2022/03/13 02:57:14;;;;;;;41.25;17.50;;;;;;;-1.41;68.64;93740.44;5051459;28;20052;-51
2022/03/13 02:59:41;;;;;;;37.23;15.33;;;;;;;-1.44;68.54;93743.81;5051938;28;20051;-47
2022/03/13 03:02:08;;;;;;;38.97;16.23;;;;;;;-1.44;68.75;93743.03;5051405;28;20041;-54
2022/03/13 03:04:35;;;;;;;39.50;15.80;;;;;;;-1.48;68.50;93740.22;5052231;28;20037;-54
2022/03/13 03:07:04;;;;;;;38.60;16.35;;;;;;;-1.52;68.77;93738.59;5050925;28;20048;-53
2022/03/13 03:09:32;;;;;;;38.83;16.88;;;;;;;-1.55;69.09;93744.63;5051037;28;21505;-57
2022/03/13 03:12:01;;;;;;;38.50;15.70;;;;;;;-1.50;69.51;93749.78;5052224;28;20041;-48
2022/03/13 03:14:29;;;;;;;39.63;16.90;;;;;;;-1.51;69.19;93740.13;5051606;28;20041;-51
2022/03/13 03:16:57;;;;;;;38.55;16.17;;;;;;;-1.55;68.87;93747.31;5052008;28;20041;-48
2022/03/13 03:19:25;;;;;;;37.42;15.90;;;;;;;-1.64;69.20;93736.72;5050060;28;20052;-51
2022/03/13 03:21:52;;;;;;;35.13;15.73;;;;;;;-1.73;69.67;93741.44;5050794;28;20036;-47
2022/03/13 03:24:24;;;;;;;37.97;15.67;;;;;;;-1.70;69.73;93740.78;5051198;28;20037;-46
2022/03/13 03:26:53;;;;;;;38.20;15.68;;;;;;;-1.66;69.55;93741.66;5051818;28;20420;-49
2022/03/13 03:29:21;;;;;;;37.92;15.73;;;;;;;-1.64;69.75;93750.16;5051090;28;20478;-50
2022/03/13 03:31:49;;;;;;;41.10;15.98;;;;;;;-1.61;69.85;93747.59;5051858;28;20424;-51
2022/03/13 03:34:18;;;;;;;40.38;16.67;;;;;;;-1.79;70.30;93754.38;5051123;28;20393;-46
2022/03/13 03:36:57;;;;;;;36.83;15.47;;;;;;;-1.92;70.73;93758.22;5051626;28;20041;-54
2022/03/13 03:39:24;;;;;;;37.45;16.20;;;;;;;-1.98;71.18;93757.66;5050060;28;20053;-47
2022/03/13 03:41:52;;;;;;;39.88;16.80;;;;;;;-1.94;71.32;93758.56;5051578;28;20135;-51
2022/03/13 03:44:19;;;;;;;41.15;16.13;;;;;;;-1.99;70.88;93756.09;5050927;28;20056;-53
2022/03/13 03:46:47;;;;;;;36.97;16.20;;;;;;;-2.00;71.15;93754.53;5051379;28;20053;-48
2022/03/13 03:49:15;;;;;;;37.23;15.70;;;;;;;-1.96;70.82;93755.41;5038994;28;20076;-52
2022/03/13 03:51:43;;;;;;;37.63;15.00;;;;;;;-1.91;70.96;93757.88;5051373;28;20056;-47
2022/03/13 03:54:11;;;;;;;37.10;15.73;;;;;;;-1.83;70.46;93756.19;5049556;28;20488;-58
2022/03/13 03:56:38;;;;;;;37.20;15.25;;;;;;;-1.77;69.90;93749.44;5051303;28;20516;-46
2022/03/13 03:59:05;;;;;;;38.70;15.60;;;;;;;-1.78;69.99;93752.47;5050542;28;20067;-47
2022/03/13 04:01:40;;;;;;;37.30;15.20;;;;;;;-1.81;69.75;93751.25;5049205;28;20117;-47
2022/03/13 04:04:14;;;;;;;34.67;14.65;;;;;;;-1.85;69.74;93750.34;5051220;28;20048;-46
2022/03/13 04:06:41;;;;;;;41.47;16.25;;;;;;;-1.89;69.74;93758.31;5050703;28;20098;-46
2022/03/13 04:09:09;;;;;;;35.15;15.10;;;;;;;-1.88;70.40;93754.50;5062874;28;20037;-48
2022/03/13 04:11:37;;;;;;;39.53;15.68;;;;;;;-1.90;70.16;93750.59;5050270;28;20047;-48
2022/03/13 04:14:05;;;;;;;37.23;15.47;;;;;;;-1.89;70.23;93757.53;5050357;28;20045;-44
2022/03/13 04:16:31;;;;;;;34.63;15.30;;;;;;;-1.95;70.58;93756.19;5045721;28;20397;-48
2022/03/13 04:18:58;;;;;;;39.53;15.68;;;;;;;-1.95;70.49;93757.00;5031122;28;20046;-50
2022/03/13 04:21:25;;;;;;;35.65;16.02;;;;;;;-1.94;70.47;93755.84;5030575;28;20045;-51
2022/03/13 04:23:53;;;;;;;35.63;15.13;;;;;;;-1.97;70.38;93753.06;5031233;28;20045;-48
2022/03/13 04:26:22;;;;;;;36.97;15.57;;;;;;;-1.97;70.64;93751.19;5030391;28;20049;-45
2022/03/13 04:28:49;;;;;;;34.25;14.43;;;;;;;-1.98;70.46;93763.03;5030819;28;20057;-49
2022/03/13 04:31:18;;;;;;;38.58;15.45;;;;;;;-2.01;70.34;93753.75;5029955;28;20048;-48
2022/03/13 04:33:45;;;;;;;36.90;15.35;;;;;;;-2.08;71.06;93750.06;5045939;28;20111;-46
2022/03/13 04:36:14;;;;;;;34.13;15.20;;;;;;;-2.07;70.69;93746.28;5030051;28;20046;-50
2022/03/13 04:38:41;;;;;;;36.37;14.60;;;;;;;-2.08;70.51;93747.38;5030700;28;20041;-47
2022/03/13 04:41:08;;;;;;;37.13;15.38;;;;;;;-2.08;70.59;93752.75;5029940;28;20126;-51
2022/03/13 04:43:37;;;;;;;34.65;14.73;;;;;;;-2.09;70.58;93743.91;5030091;28;20304;-53
2022/03/13 04:46:04;;;;;;;36.55;15.45;;;;;;;-2.09;70.84;93743.91;5030622;28;20417;-57
2022/03/13 04:48:32;;;;;;;35.05;14.68;;;;;;;-2.06;70.66;93745.13;5029299;28;20854;-55
2022/03/13 04:50:59;;;;;;;37.73;14.90;;;;;;;-2.09;70.86;93749.28;5030564;28;20041;-50
2022/03/13 04:53:27;;;;;;;36.35;14.93;;;;;;;-2.12;70.57;93746.50;5029623;28;20044;-54
2022/03/13 04:55:54;;;;;;;39.85;15.93;;;;;;;-2.08;71.29;93753.53;5030329;28;20079;-54
2022/03/13 04:58:20;;;;;;;36.92;15.40;;;;;;;-2.11;71.30;93754.22;5029578;28;20489;-49
2022/03/13 05:00:47;;;;;;;36.50;15.07;;;;;;;-2.12;71.18;93759.94;5030043;28;20045;-49
2022/03/13 05:03:14;;;;;;;34.50;14.60;;;;;;;-2.15;70.98;93758.72;5029235;28;20041;-60
2022/03/13 05:05:41;;;;;;;36.85;16.02;;;;;;;-2.12;71.40;93762.63;5030127;28;20115;-51
2022/03/13 05:08:15;;;;;;;39.45;16.15;;;;;;;-2.15;71.11;93761.41;5043500;28;20048;-49
2022/03/13 05:10:44;;;;;;;34.58;15.05;;;;;;;-2.15;70.98;93757.91;5049960;28;20485;-47
2022/03/13 05:13:13;;;;;;;42.45;15.45;;;;;;;-2.16;70.46;93762.50;5049304;28;20057;-46
2022/03/13 05:15:41;;;;;;;35.30;14.37;;;;;;;-2.16;70.29;93756.34;5049901;28;20037;-46
2022/03/13 05:18:09;;;;;;;39.45;15.90;;;;;;;-2.25;71.02;93757.28;5049528;28;20049;-47
2022/03/13 05:20:36;;;;;;;36.33;14.73;;;;;;;-2.25;70.89;93759.19;5049652;28;20045;-46
2022/03/13 05:23:05;;;;;;;34.75;15.20;;;;;;;-2.37;71.48;93761.84;5048429;28;20047;-53
2022/03/13 05:25:32;;;;;;;35.35;14.65;;;;;;;-2.37;71.67;93759.16;5048435;28;20852;-52
2022/03/13 05:27:59;;;;;;;37.47;15.07;;;;;;;-2.33;71.16;93760.88;5049488;28;20045;-48
2022/03/13 05:30:27;;;;;;;35.67;14.73;;;;;;;-2.30;71.13;93757.50;5048885;28;20608;-50
2022/03/13 05:32:55;;;;;;;36.55;15.48;;;;;;;-2.30;71.64;93760.19;5048277;28;20041;-48
2022/03/13 05:35:23;;;;;;;35.45;15.18;;;;;;;-2.24;71.32;93766.09;5049007;28;20049;-47
2022/03/13 05:37:50;;;;;;;35.38;15.23;;;;;;;-2.24;70.62;93764.19;5049465;28;20113;-53
2022/03/13 05:40:19;;;;;;;34.83;14.87;;;;;;;-2.22;71.20;93761.19;5048429;28;20049;-59
2022/03/13 05:42:49;;;;;;;33.90;14.68;;;;;;;-2.18;70.62;93766.66;5049185;28;20049;-50
2022/03/13 05:45:20;;;;;;;36.30;14.57;;;;;;;-2.14;70.59;93771.03;5048685;28;20045;-57
2022/03/13 05:47:48;;;;;;;35.55;15.05;;;;;;;-2.08;70.55;93776.97;5049396;28;20481;-50
2022/03/13 05:50:16;;;;;;;36.28;15.32;;;;;;;-2.07;70.21;93782.00;5047406;28;20055;-53
2022/03/13 05:52:45;;;;;;;33.00;14.80;;;;;;;-2.07;70.41;93775.84;5049400;28;20139;-50
2022/03/13 05:55:17;;;;;;;35.90;14.82;;;;;;;-2.05;70.59;93784.34;5048739;28;20049;-49
2022/03/13 05:57:44;;;;;;;35.92;15.45;;;;;;;-2.00;70.41;93778.72;5049143;28;20052;-46
2022/03/13 06:00:13;;;;;;;38.38;16.25;;;;;;;-1.97;70.51;93788.03;5046285;28;20478;-49
2022/03/13 06:02:42;;;;;;;37.33;15.25;;;;;;;-1.97;70.53;93793.41;5049040;28;20040;-47
2022/03/13 06:05:10;;;;;;;39.10;15.67;;;;;;;-1.92;70.16;93793.19;5048825;28;20063;-49
2022/03/13 06:07:39;;;;;;;35.13;14.90;;;;;;;-1.91;69.79;93798.22;5048591;28;20041;-46
2022/03/13 06:10:08;;;;;;;35.38;15.02;;;;;;;-1.81;69.62;93794.28;5048404;28;20045;-49
2022/03/13 06:12:36;;;;;;;35.65;14.75;;;;;;;-1.86;69.11;93800.66;5048797;28;20459;-46
2022/03/13 06:15:05;;;;;;;33.88;14.85;;;;;;;-1.89;69.80;93795.19;5048853;28;20051;-46
2022/03/13 06:17:36;;;;;;;31.50;14.17;;;;;;;-1.79;69.79;93797.41;5039661;28;20903;-46
2022/03/13 06:20:04;;;;;;;35.33;14.73;;;;;;;-1.73;69.44;93797.94;5047654;28;20061;-49
2022/03/13 06:22:31;;;;;;;32.72;14.55;;;;;;;-1.70;69.25;93806.13;5047542;28;20686;-50
2022/03/13 06:24:58;;;;;;;38.65;15.07;;;;;;;-1.63;69.02;93792.09;5048936;28;20090;-46
2022/03/13 06:27:25;;;;;;;35.67;15.40;;;;;;;-1.51;68.55;93799.34;5048260;28;20106;-46
2022/03/13 06:29:52;;;;;;;33.70;14.33;;;;;;;-1.43;68.50;93803.78;5048439;28;20037;-53
2022/03/13 06:32:19;;;;;;;34.95;14.40;;;;;;;-1.34;68.08;93801.75;5048274;28;20049;-59
2022/03/13 06:34:45;;;;;;;36.47;14.82;;;;;;;-1.58;68.48;93805.31;5047552;28;20091;-57
2022/03/13 06:37:12;;;;;;;36.88;15.55;;;;;;;-1.53;69.27;93807.78;5048036;28;20049;-54
2022/03/13 06:39:39;;;;;;;36.63;16.35;;;;;;;-1.69;69.72;93801.50;5048469;28;20049;-50
2022/03/13 06:42:07;;;;;;;33.90;15.30;;;;;;;-1.54;69.69;93803.50;5035542;28;20059;-47
2022/03/13 06:44:34;;;;;;;34.95;15.52;;;;;;;-1.40;69.51;93797.75;5048278;28;20037;-53
2022/03/13 06:47:01;;;;;;;41.63;17.00;;;;;;;-1.16;68.76;93802.25;5048663;28;20040;-49
2022/03/13 06:49:28;;;;;;;43.03;18.85;;;;;;;-1.02;68.06;93805.31;5046780;28;20039;-51
2022/03/13 06:51:55;;;;;;;40.83;18.20;;;;;;;-0.86;68.40;93796.47;5048622;28;20048;-50
2022/03/13 06:54:22;;;;;;;42.23;17.27;;;;;;;-0.73;67.48;93806.03;5046475;28;20051;-56
2022/03/13 06:56:50;;;;;;;44.95;18.63;;;;;;;-0.76;67.77;93806.75;5046869;28;20047;-49
2022/03/13 06:59:17;;;;;;;43.70;19.67;;;;;;;-0.63;67.41;93807.44;5046478;28;20041;-47
2022/03/13 07:01:44;;;;;;;40.42;18.60;;;;;;;-0.52;67.32;93807.72;5048243;28;20041;-50
2022/03/13 07:04:12;;;;;;;41.25;18.52;;;;;;;-0.23;66.96;93795.69;5047917;28;20067;-53
2022/03/13 07:06:39;;;;;;;43.60;18.00;;;;;;;0.01;66.10;93797.41;5047922;28;20053;-52
2022/03/13 07:09:09;;;;;;;39.10;17.92;;;;;;;0.07;65.79;93797.91;5047608;28;20045;-52
2022/03/13 07:11:35;;;;;;;40.75;19.13;;;;;;;0.03;65.87;93802.44;5048065;28;20047;-49
2022/03/13 07:14:07;;;;;;;40.42;18.50;;;;;;;0.17;65.61;93789.25;5049979;28;20045;-49
2022/03/13 07:16:34;;;;;;;37.35;17.48;;;;;;;0.24;65.26;93799.41;5042852;28;20041;-49
2022/03/13 07:19:00;;;;;;;40.33;17.97;;;;;;;0.55;65.11;93795.84;5052026;28;20059;-52
2022/03/13 07:21:27;;;;;;;40.17;18.48;;;;;;;0.59;64.82;93788.59;5051310;28;20041;-52
2022/03/13 07:23:54;;;;;;;38.92;17.98;;;;;;;0.81;64.58;93789.81;5051959;28;20056;-46
2022/03/13 07:26:21;;;;;;;34.70;16.73;;;;;;;0.96;64.18;93796.25;5051479;28;20045;-46
2022/03/13 07:28:47;;;;;;;36.05;17.67;;;;;;;1.04;63.50;93794.47;5051597;28;20045;-50
2022/03/13 07:31:14;;;;;;;37.90;17.80;;;;;;;1.52;63.23;93800.34;5049882;28;20053;-48
2022/03/13 07:33:41;;;;;;;38.03;17.55;;;;;;;1.79;62.32;93787.63;5051207;28;20045;-54
2022/03/13 07:36:08;;;;;;;39.00;17.85;;;;;;;3.00;59.27;93798.56;5051030;28;20439;-50
2022/03/13 07:38:35;;;;;;;32.72;17.38;;;;;;;6.63;50.04;93792.09;5051524;28;20506;-46
2022/03/13 07:41:02;;;;;;;35.60;17.48;;;;;;;9.25;43.00;93784.75;5051251;28;20039;-48
2022/03/13 07:43:29;;;;;;;34.00;18.93;;;;;;;10.92;39.60;93779.84;5050549;28;20037;-58
2022/03/13 07:45:56;;;;;;;35.38;18.92;;;;;;;12.81;35.94;93784.34;5051368;28;20040;-55
2022/03/13 07:48:23;;;;;;;32.90;19.00;;;;;;;14.45;32.65;93776.06;5065439;28;20044;-58
2022/03/13 07:50:50;;;;;;;38.85;20.75;;;;;;;15.60;30.10;93776.91;5051373;28;20431;-51
2022/03/13 07:53:16;;;;;;;33.03;20.00;;;;;;;14.20;31.05;93774.09;5051004;28;20041;-53
2022/03/13 07:55:43;;;;;;;32.33;20.73;;;;;;;15.10;30.03;93771.94;5050958;28;20033;-53
2022/03/13 07:58:11;;;;;;;31.50;20.42;;;;;;;16.53;28.34;93771.34;5050436;28;20067;-52
2022/03/13 08:00:37;;;;;;;28.92;20.25;;;;;;;16.33;27.83;93776.50;5050535;28;20049;-53
2022/03/13 08:03:04;;;;;;;30.58;19.38;;;;;;;17.39;26.68;93771.78;5050582;28;20033;-53
2022/03/13 08:05:32;;;;;;;28.48;19.92;;;;;;;18.22;25.99;93764.03;5050601;28;20043;-49
2022/03/13 08:07:59;;;;;;;40.53;22.13;;;;;;;18.60;25.17;93756.31;5049724;28;20041;-47
2022/03/13 08:10:25;;;;;;;29.10;19.50;;;;;;;18.97;23.83;93762.44;5049059;28;20140;-50
2022/03/13 08:12:53;;;;;;;27.60;19.75;;;;;;;19.53;23.88;93755.19;5050875;28;20057;-52
2022/03/13 08:15:21;;;;;;;27.70;19.92;;;;;;;20.05;22.97;93749.28;5050392;28;20071;-47
2022/03/13 08:17:48;;;;;;;27.00;19.70;;;;;;;20.11;22.92;93749.38;5060089;28;20037;-46
2022/03/13 08:20:14;;;;;;;26.47;19.37;;;;;;;20.60;22.49;93755.47;5050151;28;20071;-53
2022/03/13 08:22:41;;;;;;;27.23;19.83;;;;;;;20.95;21.67;93747.84;5049284;28;20041;-48
2022/03/13 08:25:08;;;;;;;28.23;21.00;;;;;;;20.87;22.21;93752.28;5049805;28;20052;-47
2022/03/13 08:27:35;;;;;;;30.38;21.85;;;;;;;22.16;21.15;93752.19;5050320;28;20051;-45
2022/03/13 08:30:04;;;;;;;46.92;26.73;;;;;;;21.96;20.80;93746.69;5050555;28;20094;-45
2022/03/13 08:32:31;;;;;;;38.73;24.13;;;;;;;22.68;20.61;93749.28;5049325;28;20739;-50
2022/03/13 08:34:57;;;;;;;29.88;20.58;;;;;;;21.99;20.46;93746.44;5050416;28;20057;-51
2022/03/13 08:37:24;;;;;;;26.67;20.17;;;;;;;22.11;20.20;93747.31;5050123;28;20060;-48
2022/03/13 08:39:51;;;;;;;25.48;20.27;;;;;;;21.15;21.57;93747.06;5048739;28;20048;-56
2022/03/13 08:42:17;;;;;;;26.85;20.73;;;;;;;22.59;20.24;93745.91;5049657;28;20049;-50
2022/03/13 08:44:44;;;;;;;26.33;19.67;;;;;;;23.70;19.85;93739.34;5049944;28;20045;-50
2022/03/13 08:47:11;;;;;;;27.08;20.92;;;;;;;22.85;20.06;93741.00;5049771;28;20071;-53
2022/03/13 08:49:38;;;;;;;29.58;21.23;;;;;;;25.55;17.69;93744.53;5048758;28;20043;-49
2022/03/13 08:52:05;;;;;;;37.35;24.23;;;;;;;25.21;17.81;93739.81;5049792;28;20094;-48
2022/03/13 08:54:32;;;;;;;27.00;19.38;;;;;;;22.66;19.76;93739.88;5049940;28;20037;-50
2022/03/13 08:56:59;;;;;;;28.63;19.93;;;;;;;23.39;19.23;93739.50;5065163;28;20044;-49
2022/03/13 08:59:26;;;;;;;26.02;19.50;;;;;;;25.44;17.78;93737.69;5030707;28;20044;-52
2022/03/13 09:01:53;;;;;;;25.05;19.20;;;;;;;25.22;17.83;93732.16;5049927;28;20163;-51
2022/03/13 09:04:20;;;;;;;26.35;18.58;;;;;;;26.37;16.57;93738.13;5048172;28;20037;-55
2022/03/13 09:06:49;;;;;;;23.40;18.27;;;;;;;26.03;16.82;93732.75;5049733;28;20059;-49
2022/03/13 09:09:18;;;;;;;25.67;18.13;;;;;;;25.15;17.66;93729.84;5049493;28;20045;-55
2022/03/13 09:11:47;;;;;;;22.08;17.83;;;;;;;26.05;16.77;93733.00;5049696;28;20048;-51
2022/03/13 09:14:14;;;;;;;22.35;17.13;;;;;;;25.69;16.58;93724.50;5049270;28;20056;-50
2022/03/13 09:16:43;;;;;;;23.48;17.00;;;;;;;24.88;16.98;93723.81;5049199;28;20106;-56
2022/03/13 09:19:10;;;;;;;37.13;16.73;;;;;;;26.61;15.80;93725.44;5037034;28;20044;-51
2022/03/13 09:21:39;;;;;;;19.27;14.43;;;;;;;27.28;14.69;93719.09;5049672;28;20051;-56
2022/03/13 09:24:08;;;;;;;18.70;13.88;;;;;;;26.07;15.24;93716.38;5049076;28;20681;-51
2022/03/13 09:26:43;;;;;;;18.92;14.80;;;;;;;28.52;13.92;93713.06;5049403;28;20037;-54
2022/03/13 09:29:09;;;;;;;18.85;14.85;;;;;;;30.08;12.88;93704.84;5049112;28;20055;-48
2022/03/13 09:31:36;;;;;;;15.80;12.52;;;;;;;30.45;11.95;93708.66;5047820;28;20041;-48
2022/03/13 09:34:04;;;;;;;15.57;12.00;;;;;;;27.27;13.41;93702.75;5049427;28;20041;-54
2022/03/13 09:36:35;;;;;;;15.40;11.77;;;;;;;27.04;14.11;93707.84;5047334;28;20747;-54
2022/03/13 09:39:07;;;;;;;17.45;13.80;;;;;;;26.30;15.49;93714.16;5048006;28;20036;-51
2022/03/13 09:41:35;;;;;;;16.48;13.55;;;;;;;27.99;14.21;93702.28;5047985;28;20874;-55
2022/03/13 09:44:02;;;;;;;16.92;12.90;;;;;;;30.24;12.58;93703.72;5049357;28;20033;-51
2022/03/13 09:46:28;;;;;;;16.40;12.60;;;;;;;31.09;11.58;93695.94;5048823;28;20051;-48
2022/03/13 09:48:55;;;;;;;15.18;11.70;;;;;;;27.14;13.63;93703.38;5048757;28;20052;-49
2022/03/13 09:51:22;;;;;;;15.52;11.63;;;;;;;24.50;15.45;93698.88;5048539;28;20049;-55
2022/03/13 09:53:49;;;;;;;14.82;11.35;;;;;;;24.55;15.55;93697.34;5048542;28;20397;-56
2022/03/13 09:56:16;;;;;;;17.48;12.23;;;;;;;25.58;15.34;93704.16;5048429;28;20041;-52
2022/03/13 09:58:45;;;;;;;16.80;12.03;;;;;;;27.22;14.05;93697.91;5048512;28;20045;-47
2022/03/13 10:01:12;;;;;;;16.10;12.30;;;;;;;25.25;15.91;93705.84;5048375;28;20045;-50
2022/03/13 10:03:39;;;;;;;16.35;12.02;;;;;;;23.62;16.72;93693.44;5048832;28;20041;-50
2022/03/13 10:06:06;;;;;;;15.07;11.77;;;;;;;25.34;15.53;93694.31;5048324;28;20064;-51
2022/03/13 10:08:34;;;;;;;16.08;11.93;;;;;;;26.87;14.64;93691.88;5048298;28;20045;-50
2022/03/13 10:11:03;;;;;;;16.50;12.27;;;;;;;28.04;12.61;93682.47;5048735;28;20044;-52
2022/03/13 10:13:38;;;;;;;18.13;12.23;;;;;;;27.18;13.43;93683.34;5046517;28;21725;-51
2022/03/13 10:16:07;;;;;;;14.63;11.23;;;;;;;25.20;14.89;93687.69;5048488;28;20041;-47
2022/03/13 10:18:35;;;;;;;16.38;11.98;;;;;;;22.08;17.18;93676.41;5048646;28;20101;-56
2022/03/13 10:21:13;;;;;;;15.57;11.00;;;;;;;25.86;14.90;93671.00;5048721;28;20082;-54
2022/03/13 10:23:40;;;;;;;18.10;12.10;;;;;;;23.02;16.68;93667.56;5047479;28;20368;-51
2022/03/13 10:26:07;;;;;;;16.85;11.90;;;;;;;25.38;14.92;93675.13;5048416;28;20498;-54
2022/03/13 10:28:40;;;;;;;15.40;11.68;;;;;;;29.18;12.48;93658.72;5048054;28;20041;-60
2022/03/13 10:31:15;;;;;;;14.55;10.93;;;;;;;30.31;11.29;93661.91;5048175;28;20049;-50
2022/03/13 10:33:58;;;;;;;15.10;11.32;;;;;;;31.71;10.34;93651.63;5048686;28;20064;-50
2022/03/13 10:36:39;;;;;;;14.97;10.87;;;;;;;30.67;11.23;93653.50;5048417;28;20055;-52
2022/03/13 10:39:17;;;;;;;14.65;11.30;;;;;;;29.65;12.04;93649.47;5048317;28;20055;-55
2022/03/13 10:41:47;;;;;;;15.57;12.00;;;;;;;26.50;13.84;93653.88;5048229;28;20106;-53
2022/03/13 10:44:17;;;;;;;15.30;11.85;;;;;;;24.43;15.22;93643.28;5047761;28;20049;-54
2022/03/13 10:46:46;;;;;;;17.75;12.30;;;;;;;24.68;15.24;93649.88;5048068;28;20432;-52
2022/03/13 10:49:14;;;;;;;16.30;11.73;;;;;;;25.61;14.94;93641.28;5051773;28;20053;-53
2022/03/13 10:51:46;;;;;;;16.58;12.10;;;;;;;28.97;12.55;93633.91;5052083;28;20041;-56
2022/03/13 10:54:30;;;;;;;16.58;12.35;;;;;;;28.26;12.72;93627.00;5050497;28;20106;-52
2022/03/13 10:57:13;;;;;;;15.48;11.48;;;;;;;29.21;12.32;93638.59;5052138;28;20033;-52
2022/03/13 10:59:41;;;;;;;15.52;11.52;;;;;;;30.26;11.44;93638.81;5042713;28;21839;-54
2022/03/13 11:02:14;;;;;;;16.30;11.70;;;;;;;27.07;13.25;93634.31;5049802;28;20044;-48
2022/03/13 11:04:52;;;;;;;14.80;10.70;;;;;;;27.14;13.39;93637.81;5052448;28;20040;-50
2022/03/13 11:07:20;;;;;;;14.75;10.90;;;;;;;25.83;14.60;93637.53;5049813;28;20051;-47
2022/03/13 11:09:47;;;;;;;15.98;11.48;;;;;;;25.97;14.22;93642.06;5051830;28;20051;-51
2022/03/13 11:12:20;;;;;;;17.48;11.88;;;;;;;19.23;20.35;93648.63;5051587;28;20063;-50
2022/03/13 11:14:49;;;;;;;15.83;11.10;;;;;;;23.04;17.14;93642.66;5051861;28;20037;-47
2022/03/13 11:17:20;;;;;;;15.60;11.30;;;;;;;22.14;17.87;93646.47;5050204;28;20057;-47
2022/03/13 11:19:50;;;;;;;17.35;11.30;;;;;;;21.40;18.19;93640.78;5051631;28;20037;-50
2022/03/13 11:22:20;;;;;;;16.63;11.27;;;;;;;21.34;18.58;93635.13;5051163;28;20041;-49
2022/03/13 11:24:53;;;;;;;17.83;11.93;;;;;;;20.31;19.61;93649.13;5051466;28;20171;-53